createdAt,value
2022-10-02T00:02:15.317Z,100167.78
2022-10-02T00:04:49.380Z,100171.41
2022-10-02T00:07:19.148Z,100173.41
2022-10-02T00:09:49.769Z,100175.42
2022-10-02T00:12:20.114Z,100177.56
2022-10-02T00:14:49.006Z,100176.99
2022-10-02T00:17:29.529Z,100177.19
2022-10-02T00:19:57.236Z,100185.51
2022-10-02T00:22:40.276Z,100188.02
2022-10-02T00:25:13.971Z,100192.09
2022-10-02T00:27:49.856Z,100195.95
2022-10-02T00:30:18.395Z,100194.33
2022-10-02T00:32:58.264Z,100198.48
2022-10-02T00:35:45.958Z,100202.44
2022-10-02T00:38:20.335Z,100207.08
2022-10-02T00:40:51.039Z,100209.59
2022-10-02T00:43:21.447Z,100212.76
2022-10-02T00:45:57.479Z,100214.16
2022-10-02T00:48:31.617Z,100214.00
2022-10-02T00:50:59.363Z,100220.68
2022-10-02T00:53:33.251Z,100222.29
2022-10-02T00:56:10.277Z,100225.61
2022-10-02T00:58:38.008Z,100227.60
2022-10-02T01:01:10.806Z,100230.27
2022-10-02T01:03:44.431Z,100229.45
2022-10-02T01:06:12.268Z,100232.67
2022-10-02T01:08:41.212Z,100232.98
2022-10-02T01:11:09.688Z,100233.40
2022-10-02T01:13:37.352Z,100235.74
2022-10-02T01:16:09.668Z,100240.81
2022-10-02T01:18:37.813Z,100246.89
2022-10-02T01:21:08.889Z,100253.32
2022-10-02T01:23:41.442Z,100254.69
2022-10-02T01:26:09.505Z,100259.66
2022-10-02T01:28:37.397Z,100264.21
2022-10-02T01:31:07.835Z,100271.77
2022-10-02T01:33:37.344Z,100276.33
2022-10-02T01:36:05.334Z,100281.41
2022-10-02T01:38:33.233Z,100283.70
2022-10-02T01:41:01.034Z,100288.27
2022-10-02T01:43:31.839Z,100286.21
2022-10-02T01:46:03.078Z,100290.58
2022-10-02T01:48:45.330Z,100291.84
2022-10-02T01:51:20.514Z,100295.92
2022-10-02T01:53:52.810Z,100297.64
2022-10-02T01:56:25.528Z,100298.35
2022-10-02T01:59:11.797Z,100302.62
2022-10-02T02:02:05.436Z,100308.80
2022-10-02T02:04:40.690Z,100310.44
2022-10-02T02:07:25.969Z,100316.39
2022-10-02T02:09:53.620Z,100315.92
2022-10-02T02:12:25.042Z,100319.66
2022-10-02T02:14:59.988Z,100322.95
2022-10-02T02:17:31.727Z,100323.42
2022-10-02T02:20:06.109Z,100324.92
2022-10-02T02:22:40.558Z,100329.86
2022-10-02T02:25:12.170Z,100335.15
2022-10-02T02:27:42.864Z,100339.12
2022-10-02T02:30:12.706Z,100343.85
2022-10-02T02:32:44.221Z,100345.61
2022-10-02T02:35:22.253Z,100345.52
2022-10-02T02:37:52.694Z,100344.86
2022-10-02T02:40:24.080Z,100346.60
2022-10-02T02:43:13.626Z,100347.98
2022-10-02T02:45:45.920Z,100350.92
2022-10-02T02:48:23.216Z,100354.20
2022-10-02T02:50:52.085Z,100356.67
2022-10-02T02:53:25.934Z,100353.30
2022-10-02T02:55:55.993Z,100353.55
2022-10-02T02:58:29.795Z,100354.55
2022-10-02T03:00:57.618Z,100356.35
2022-10-02T03:03:25.524Z,100357.80
2022-10-02T03:06:19.412Z,100360.76
2022-10-02T03:08:48.407Z,100362.95
2022-10-02T03:11:24.248Z,100360.42
2022-10-02T03:13:54.661Z,100364.59
2022-10-02T03:16:35.210Z,100363.28
2022-10-02T03:19:05.900Z,100366.48
2022-10-02T03:21:38.962Z,100370.98
2022-10-02T03:24:11.742Z,100371.24
2022-10-02T03:26:41.385Z,100376.40
2022-10-02T03:29:13.503Z,100375.23
2022-10-02T03:31:41.667Z,100378.66
2022-10-02T03:34:09.424Z,100378.33
2022-10-02T03:36:37.326Z,100382.77
2022-10-02T03:39:23.731Z,100381.03
2022-10-02T03:41:53.745Z,100383.82
2022-10-02T03:44:21.380Z,100387.86
2022-10-02T03:46:49.099Z,100385.48
2022-10-02T03:49:16.766Z,100384.63
2022-10-02T03:51:44.485Z,100384.70
2022-10-02T03:54:15.641Z,100389.20
2022-10-02T03:56:46.210Z,100391.41
2022-10-02T03:59:22.713Z,100392.98
2022-10-02T04:01:52.121Z,100393.72
2022-10-02T04:04:26.928Z,100392.51
2022-10-02T04:06:59.041Z,100397.07
2022-10-02T04:09:33.856Z,100394.52
2022-10-02T04:12:04.642Z,100391.80
2022-10-02T04:14:35.066Z,100398.58
2022-10-02T04:17:06.396Z,100397.80
2022-10-02T04:19:55.736Z,100398.39
2022-10-02T04:22:32.650Z,100404.40
2022-10-02T04:25:03.453Z,100403.76
2022-10-02T04:27:42.708Z,100411.24
2022-10-02T04:30:11.904Z,100414.23
2022-10-02T04:32:39.689Z,100414.98
2022-10-02T04:35:13.572Z,100420.52
2022-10-02T04:38:01.460Z,100423.96
2022-10-02T04:40:50.647Z,100427.27
2022-10-02T04:43:31.089Z,100430.23
2022-10-02T04:46:08.211Z,100432.85
2022-10-02T04:48:48.264Z,100433.80
2022-10-02T04:51:22.603Z,100442.50
2022-10-02T04:53:50.277Z,100442.67
2022-10-02T04:56:18.030Z,100451.50
2022-10-02T04:58:53.981Z,100447.27
2022-10-02T05:01:40.914Z,100451.69
2022-10-02T05:04:30.280Z,100454.25
2022-10-02T05:06:58.016Z,100456.83
2022-10-02T05:09:33.667Z,100453.89
2022-10-02T05:12:10.753Z,100453.60
2022-10-02T05:14:38.398Z,100446.70
2022-10-02T05:17:06.011Z,100450.25
2022-10-02T05:20:02.818Z,100445.70
2022-10-02T05:22:36.599Z,100451.70
2022-10-02T05:25:04.135Z,100451.99
2022-10-02T05:27:32.004Z,100451.36
2022-10-02T05:30:02.777Z,100457.48
2022-10-02T05:32:41.124Z,100461.94
2022-10-02T05:35:18.105Z,100459.28
2022-10-02T05:38:04.461Z,100458.90
2022-10-02T05:40:50.939Z,100461.02
2022-10-02T05:43:27.383Z,100460.91
2022-10-02T05:46:10.250Z,100463.38
2022-10-02T05:48:53.183Z,100465.86
2022-10-02T05:51:41.889Z,100466.40
2022-10-02T05:54:23.639Z,100467.92
2022-10-02T05:57:01.138Z,100471.23
2022-10-02T05:59:34.629Z,100472.16
2022-10-02T06:02:04.950Z,100472.40
2022-10-02T06:04:37.636Z,100474.17
2022-10-02T06:07:14.412Z,100474.92
2022-10-02T06:09:47.796Z,100474.98
2022-10-02T06:12:26.680Z,100476.11
2022-10-02T06:14:59.614Z,100478.98
2022-10-02T06:17:29.708Z,100480.53
2022-10-02T06:20:04.133Z,100480.38
2022-10-02T06:22:35.577Z,100482.26
2022-10-02T06:25:06.258Z,100481.87
2022-10-02T06:27:39.982Z,100483.27
2022-10-02T06:30:13.242Z,100483.43
2022-10-02T06:32:53.311Z,100483.77
2022-10-02T06:35:34.373Z,100483.46
2022-10-02T06:38:08.630Z,100491.19
2022-10-02T06:40:47.331Z,100488.06
2022-10-02T06:43:27.325Z,100497.98
2022-10-02T06:46:13.501Z,100498.30
2022-10-02T06:48:48.337Z,100499.67
2022-10-02T06:51:21.911Z,100500.63
2022-10-02T06:53:55.714Z,100494.80
2022-10-02T06:56:41.751Z,100495.96
2022-10-02T06:59:24.910Z,100494.49
2022-10-02T07:01:58.781Z,100498.94
2022-10-02T07:04:26.465Z,100493.00
2022-10-02T07:06:54.133Z,100497.67
2022-10-02T07:09:24.566Z,100494.59
2022-10-02T07:12:15.726Z,100490.73
2022-10-02T07:14:43.582Z,100490.36
2022-10-02T07:17:25.664Z,100494.26
2022-10-02T07:20:05.711Z,100500.90
2022-10-02T07:22:45.121Z,100491.88
2022-10-02T07:25:29.588Z,100491.93
2022-10-02T07:28:06.468Z,100495.54
2022-10-02T07:30:46.736Z,100492.87
2022-10-02T07:33:20.474Z,100495.14
2022-10-02T07:35:53.638Z,100503.63
2022-10-02T07:38:45.900Z,100504.89
2022-10-02T07:41:28.727Z,100509.86
2022-10-02T07:44:11.952Z,100510.11
2022-10-02T07:46:45.494Z,100507.74
2022-10-02T07:49:45.812Z,100505.66
2022-10-02T07:52:29.700Z,100503.77
2022-10-02T07:55:08.889Z,100506.20
2022-10-02T07:57:56.905Z,100504.48
2022-10-02T08:00:25.929Z,100502.80
2022-10-02T08:03:01.596Z,100503.16
2022-10-02T08:05:29.430Z,100507.31
2022-10-02T08:07:59.899Z,100510.45
2022-10-02T08:10:31.568Z,100515.35
2022-10-02T08:13:00.208Z,100515.12
2022-10-02T08:15:33.550Z,100512.77
2022-10-02T08:18:34.274Z,100514.41
2022-10-02T08:21:05.472Z,100519.31
2022-10-02T08:23:39.078Z,100511.50
2022-10-02T08:26:14.489Z,100511.84
2022-10-02T08:28:49.482Z,100511.06
2022-10-02T08:31:17.329Z,100511.08
2022-10-02T08:33:45.070Z,100515.10
2022-10-02T08:36:16.823Z,100522.77
2022-10-02T08:38:58.389Z,100519.25
2022-10-02T08:41:36.925Z,100522.98
2022-10-02T08:44:07.561Z,100525.70
2022-10-02T08:46:58.545Z,100523.34
2022-10-02T08:49:41.417Z,100524.35
2022-10-02T08:52:28.288Z,100522.09
2022-10-02T08:55:05.771Z,100520.71
2022-10-02T08:57:52.507Z,100515.48
2022-10-02T09:00:46.825Z,100508.58
2022-10-02T09:03:33.605Z,100505.27
2022-10-02T09:06:01.344Z,100498.36
2022-10-02T09:08:33.331Z,100496.63
2022-10-02T09:11:21.007Z,100493.28
2022-10-02T09:14:15.236Z,100493.09
2022-10-02T09:17:05.792Z,100493.95
2022-10-02T09:19:51.840Z,100494.37
2022-10-02T09:22:38.375Z,100494.75
2022-10-02T09:25:06.041Z,100493.82
2022-10-02T09:27:36.861Z,100498.08
2022-10-02T09:30:10.207Z,100501.09
2022-10-02T09:32:57.779Z,100506.78
2022-10-02T09:35:37.862Z,100507.14
2022-10-02T09:38:14.929Z,100504.46
2022-10-02T09:40:53.435Z,100504.65
2022-10-02T09:43:40.759Z,100501.92
2022-10-02T09:46:20.155Z,100499.30
2022-10-02T09:48:59.417Z,100502.17
2022-10-02T09:51:36.302Z,100505.26
2022-10-02T09:54:21.676Z,100504.36
2022-10-02T09:56:49.342Z,100496.52
2022-10-02T09:59:35.624Z,100496.08
2022-10-02T10:02:06.442Z,100488.30
2022-10-02T10:05:09.953Z,100486.02
2022-10-02T10:07:43.770Z,100478.30
2022-10-02T10:10:30.782Z,100479.64
2022-10-02T10:13:08.852Z,100473.77
2022-10-02T10:15:40.675Z,100472.89
2022-10-02T10:18:11.763Z,100474.45
2022-10-02T10:20:46.937Z,100467.41
2022-10-02T10:23:18.835Z,100468.65
2022-10-02T10:25:55.416Z,100471.16
2022-10-02T10:28:41.773Z,100472.66
2022-10-02T10:31:10.221Z,100468.79
2022-10-02T10:33:47.299Z,100473.64
2022-10-02T10:36:49.575Z,100476.33
2022-10-02T10:39:42.905Z,100474.36
2022-10-02T10:42:16.776Z,100477.10
2022-10-02T10:44:50.879Z,100474.68
2022-10-02T10:47:33.593Z,100476.63
2022-10-02T10:50:07.513Z,100471.07
2022-10-02T10:53:04.197Z,100467.60
2022-10-02T10:55:50.847Z,100465.01
2022-10-02T10:58:23.689Z,100463.70
2022-10-02T11:00:51.707Z,100464.84
2022-10-02T11:03:39.285Z,100461.06
2022-10-02T11:06:26.474Z,100458.52
2022-10-02T11:09:12.827Z,100454.95
2022-10-02T11:11:41.023Z,100454.36
2022-10-02T11:14:21.524Z,100452.42
2022-10-02T11:16:58.269Z,100451.67
2022-10-02T11:19:32.047Z,100448.60
2022-10-02T11:22:09.935Z,100446.56
2022-10-02T11:24:56.647Z,100446.34
2022-10-02T11:27:36.482Z,100438.73
2022-10-02T11:30:23.308Z,100439.78
2022-10-02T11:33:19.182Z,100434.46
2022-10-02T11:35:53.105Z,100434.09
2022-10-02T11:38:27.186Z,100434.83
2022-10-02T11:40:54.895Z,100434.38
2022-10-02T11:43:30.342Z,100433.75
2022-10-02T11:46:00.311Z,100433.14
2022-10-02T11:48:28.236Z,100431.98
2022-10-02T11:51:10.783Z,100436.52
2022-10-02T11:53:44.538Z,100431.55
2022-10-02T11:56:25.424Z,100426.20
2022-10-02T11:58:53.132Z,100424.44
2022-10-02T12:01:21.369Z,100429.35
2022-10-02T12:03:49.150Z,100424.14
2022-10-02T12:06:26.382Z,100413.20
2022-10-02T12:09:12.902Z,100410.23
2022-10-02T12:11:44.737Z,100402.67
2022-10-02T12:14:23.420Z,100399.41
2022-10-02T12:17:00.391Z,100408.04
2022-10-02T12:19:34.548Z,100414.80
2022-10-02T12:22:33.686Z,100413.36
2022-10-02T12:25:37.464Z,100411.95
2022-10-02T12:28:14.657Z,100403.40
2022-10-02T12:30:51.760Z,100405.60
2022-10-02T12:33:27.462Z,100408.42
2022-10-02T12:35:58.022Z,100400.82
2022-10-02T12:38:35.618Z,100394.54
2022-10-02T12:41:21.803Z,100403.26
2022-10-02T12:44:08.942Z,100399.20
2022-10-02T12:46:36.684Z,100394.02
2022-10-02T12:49:13.321Z,100390.65
2022-10-02T12:51:55.075Z,100390.67
2022-10-02T12:54:33.688Z,100386.12
2022-10-02T12:57:10.848Z,100391.13
2022-10-02T12:59:38.525Z,100389.15
2022-10-02T13:02:49.153Z,100394.19
2022-10-02T13:05:32.242Z,100394.39
2022-10-02T13:08:09.954Z,100395.38
2022-10-02T13:10:50.089Z,100396.78
2022-10-02T13:13:28.201Z,100396.14
2022-10-02T13:16:02.736Z,100389.72
2022-10-02T13:18:47.252Z,100391.80
2022-10-02T13:21:26.826Z,100391.85
2022-10-02T13:24:13.940Z,100387.86
2022-10-02T13:26:42.630Z,100387.69
2022-10-02T13:29:25.325Z,100381.61
2022-10-02T13:31:59.386Z,100380.58
2022-10-02T13:34:46.266Z,100384.35
2022-10-02T13:37:18.144Z,100383.15
2022-10-02T13:39:58.676Z,100382.19
2022-10-02T13:42:32.832Z,100382.15
2022-10-02T13:45:05.561Z,100382.45
2022-10-02T13:47:46.851Z,100381.67
2022-10-02T13:50:29.696Z,100386.50
2022-10-02T13:53:00.347Z,100389.00
2022-10-02T13:55:31.075Z,100391.70
2022-10-02T13:58:17.498Z,100391.69
2022-10-02T14:00:45.518Z,100383.09
2022-10-02T14:03:24.684Z,100371.90
2022-10-02T14:06:12.307Z,100368.66
2022-10-02T14:08:55.594Z,100365.77
2022-10-02T14:11:30.602Z,100364.39
2022-10-02T14:14:16.937Z,100369.95
2022-10-02T14:16:59.734Z,100374.70
2022-10-02T14:19:28.256Z,100372.10
2022-10-02T14:22:12.823Z,100377.83
2022-10-02T14:25:04.167Z,100378.07
2022-10-02T14:27:50.963Z,100382.86
2022-10-02T14:30:23.955Z,100379.58
2022-10-02T14:32:57.604Z,100376.65
2022-10-02T14:35:34.573Z,100373.23
2022-10-02T14:38:35.682Z,100376.23
2022-10-02T14:41:14.236Z,100376.83
2022-10-02T14:43:42.227Z,100373.16
2022-10-02T14:46:36.764Z,100371.98
2022-10-02T14:49:13.489Z,100380.08
2022-10-02T14:51:52.064Z,100375.61
2022-10-02T14:54:34.924Z,100382.42
2022-10-02T14:57:15.170Z,100382.70
2022-10-02T15:00:05.509Z,100382.02
2022-10-02T15:02:36.088Z,100378.66
2022-10-02T15:05:07.691Z,100379.30
2022-10-02T15:07:39.062Z,100381.06
2022-10-02T15:10:33.322Z,100381.98
2022-10-02T15:13:09.981Z,100386.74
2022-10-02T15:15:43.577Z,100389.45
2022-10-02T15:18:32.040Z,100386.94
2022-10-02T15:21:02.090Z,100381.27
2022-10-02T15:23:33.115Z,100382.88
2022-10-02T15:26:22.696Z,100374.79
2022-10-02T15:28:51.013Z,100379.98
2022-10-02T15:31:25.618Z,100382.73
2022-10-02T15:34:04.305Z,100391.45
2022-10-02T15:36:34.785Z,100397.77
2022-10-02T15:39:05.606Z,100393.27
2022-10-02T15:41:42.316Z,100398.83
2022-10-02T15:44:19.285Z,100403.20
2022-10-02T15:47:02.369Z,100407.20
2022-10-02T15:49:51.290Z,100411.70
2022-10-02T15:52:18.895Z,100412.48
2022-10-02T15:55:05.195Z,100414.70
2022-10-02T15:57:34.159Z,100416.70
2022-10-02T16:00:05.675Z,100418.70
2022-10-02T16:02:53.464Z,100422.18
2022-10-02T16:05:40.277Z,100425.71
2022-10-02T16:08:27.357Z,100428.33
2022-10-02T16:10:58.045Z,100431.15
2022-10-02T16:13:47.440Z,100428.52
2022-10-02T16:16:25.801Z,100431.44
2022-10-02T16:18:56.395Z,100431.65
2022-10-02T16:21:45.198Z,100436.75
2022-10-02T16:24:18.933Z,100433.81
2022-10-02T16:27:05.346Z,100434.95
2022-10-02T16:29:52.324Z,100434.94
2022-10-02T16:32:19.985Z,100436.31
2022-10-02T16:35:07.694Z,100440.70
2022-10-02T16:38:00.075Z,100442.33
2022-10-02T16:40:32.912Z,100443.77
2022-10-02T16:43:18.697Z,100442.67
2022-10-02T16:45:49.264Z,100448.81
2022-10-02T16:48:22.081Z,100448.41
2022-10-02T16:50:52.890Z,100449.06
2022-10-02T16:53:30.646Z,100450.42
2022-10-02T16:56:13.933Z,100446.70
2022-10-02T16:58:45.587Z,100449.97
2022-10-02T17:01:32.329Z,100450.23
2022-10-02T17:04:15.590Z,100452.02
2022-10-02T17:06:53.589Z,100449.45
2022-10-02T17:09:28.800Z,100451.75
2022-10-02T17:12:02.125Z,100451.89
2022-10-02T17:14:51.843Z,100458.48
2022-10-02T17:17:23.043Z,100459.52
2022-10-02T17:19:55.604Z,100463.19
2022-10-02T17:22:42.579Z,100467.95
2022-10-02T17:25:16.207Z,100474.20
2022-10-02T17:27:56.658Z,100479.70
2022-10-02T17:30:27.359Z,100485.14
2022-10-02T17:33:08.202Z,100488.79
2022-10-02T17:35:51.595Z,100497.69
2022-10-02T17:38:25.422Z,100506.97
2022-10-02T17:40:53.682Z,100497.69
2022-10-02T17:43:37.698Z,100504.98
2022-10-02T17:46:24.458Z,100506.95
2022-10-02T17:49:03.958Z,100504.61
2022-10-02T17:54:44.332Z,100507.37
2022-10-02T17:57:31.741Z,100509.11
2022-10-02T18:00:08.322Z,100507.77
2022-10-02T18:02:36.021Z,100507.55
2022-10-02T18:05:30.106Z,100516.55
2022-10-02T18:08:00.841Z,100520.51
2022-10-02T18:10:32.326Z,100525.09
2022-10-02T18:13:18.963Z,100523.23
2022-10-02T18:15:55.938Z,100530.55
2022-10-02T18:18:37.579Z,100531.36
2022-10-02T18:21:28.243Z,100537.04
2022-10-02T18:23:59.041Z,100536.30
2022-10-02T18:26:26.723Z,100537.23
2022-10-02T18:29:15.102Z,100539.09
2022-10-02T18:31:56.405Z,100539.56
2022-10-02T18:34:44.645Z,100540.14
2022-10-02T18:37:45.123Z,100542.91
2022-10-02T18:40:28.050Z,100540.06
2022-10-02T18:43:15.680Z,100538.05
2022-10-02T18:45:46.658Z,100538.77
2022-10-02T18:48:19.685Z,100541.31
2022-10-02T18:51:10.752Z,100544.46
2022-10-02T18:53:49.049Z,100546.57
2022-10-02T18:56:23.074Z,100552.09
2022-10-02T18:59:06.268Z,100550.05
2022-10-02T19:01:41.576Z,100551.88
2022-10-02T19:04:09.793Z,100554.19
2022-10-02T19:06:55.030Z,100555.90
2022-10-02T19:09:30.012Z,100552.09
2022-10-02T19:12:01.377Z,100553.11
2022-10-02T19:14:34.956Z,100556.79
2022-10-02T19:17:05.910Z,100554.70
2022-10-02T19:19:33.582Z,100554.35
2022-10-02T19:22:02.694Z,100555.39
2022-10-02T19:24:34.404Z,100557.05
2022-10-02T19:27:07.174Z,100552.98
2022-10-02T19:29:38.129Z,100554.60
2022-10-02T19:32:18.511Z,100555.50
2022-10-02T19:34:48.864Z,100557.84
2022-10-02T19:37:18.022Z,100560.59
2022-10-02T19:39:51.322Z,100560.67
2022-10-02T19:42:25.789Z,100556.75
2022-10-02T19:44:57.222Z,100560.45
2022-10-02T19:47:31.823Z,100562.86
2022-10-02T19:50:01.591Z,100562.40
2022-10-02T19:52:48.629Z,100562.77
2022-10-02T19:55:19.161Z,100563.94
2022-10-02T19:57:48.075Z,100562.14
2022-10-02T20:00:17.148Z,100563.80
2022-10-02T20:02:46.578Z,100564.30
2022-10-02T20:05:20.015Z,100562.73
2022-10-02T20:07:49.666Z,100563.04
2022-10-02T20:10:22.485Z,100564.98
2022-10-02T20:12:56.627Z,100567.36
2022-10-02T20:15:45.558Z,100570.70
2022-10-02T20:18:14.659Z,100571.67
2022-10-02T20:20:43.278Z,100574.70
2022-10-02T20:23:20.362Z,100577.02
2022-10-02T20:25:50.945Z,100579.98
2022-10-02T20:28:34.841Z,100581.79
2022-10-02T20:31:11.275Z,100581.81
2022-10-02T20:33:45.541Z,100587.05
2022-10-02T20:36:17.113Z,100584.67
2022-10-02T20:38:51.200Z,100588.73
2022-10-02T20:41:24.409Z,100587.04
2022-10-02T20:43:55.354Z,100590.63
2022-10-02T20:46:26.142Z,100596.01
2022-10-02T20:49:09.702Z,100598.55
2022-10-02T20:51:56.562Z,100603.81
2022-10-02T20:54:50.586Z,100603.66
2022-10-02T20:57:59.135Z,100605.30
2022-10-02T21:00:27.312Z,100611.70
2022-10-02T21:03:17.281Z,100614.69
2022-10-02T21:05:45.735Z,100616.02
2022-10-02T21:08:39.946Z,100614.34
2022-10-02T21:11:13.174Z,100611.68
2022-10-02T21:13:49.686Z,100609.36
2022-10-02T21:16:36.347Z,100608.20
2022-10-02T21:19:10.454Z,100616.52
2022-10-02T21:21:44.312Z,100619.05
2022-10-02T21:24:36.035Z,100616.91
2022-10-02T21:27:12.457Z,100614.84
2022-10-02T21:29:40.115Z,100613.04
2022-10-02T21:32:20.378Z,100611.90
2022-10-02T21:35:07.006Z,100610.59
2022-10-02T21:37:54.583Z,100609.39
2022-10-02T21:40:38.226Z,100610.16
2022-10-02T21:43:28.691Z,100611.52
2022-10-02T21:45:57.565Z,100613.54
2022-10-02T21:48:50.058Z,100610.92
2022-10-02T21:51:23.702Z,100616.59
2022-10-02T21:54:11.705Z,100618.25
2022-10-02T21:56:52.560Z,100616.19
2022-10-02T21:59:39.192Z,100616.41
2022-10-02T22:02:25.630Z,100612.45
2022-10-02T22:05:12.514Z,100615.67
2022-10-02T22:07:55.523Z,100615.89
2022-10-02T22:10:55.516Z,100620.36
2022-10-02T22:13:25.498Z,100621.56
2022-10-02T22:15:56.408Z,100619.62
2022-10-02T22:18:31.818Z,100623.68
2022-10-02T22:21:18.524Z,100624.13
2022-10-02T22:24:01.211Z,100627.55
2022-10-02T22:26:47.742Z,100623.64
2022-10-02T22:29:40.999Z,100625.48
2022-10-02T22:32:36.741Z,100619.61
2022-10-02T22:35:07.189Z,100614.35
2022-10-02T22:37:42.722Z,100611.48
2022-10-02T22:40:14.508Z,100611.13
2022-10-02T22:42:49.127Z,100614.64
2022-10-02T22:45:23.773Z,100618.04
2022-10-02T22:47:56.989Z,100618.36
2022-10-02T22:50:29.446Z,100620.92
2022-10-02T22:53:00.116Z,100619.48
2022-10-02T22:55:30.102Z,100617.13
2022-10-02T22:57:57.705Z,100617.95
2022-10-02T23:00:27.847Z,100617.10
2022-10-02T23:02:58.299Z,100621.17
2022-10-02T23:05:28.745Z,100618.58
2022-10-02T23:08:01.570Z,100623.05
2022-10-02T23:10:32.654Z,100628.05
2022-10-02T23:13:12.682Z,100627.67
2022-10-02T23:15:47.515Z,100621.83
2022-10-02T23:18:20.038Z,100626.45
2022-10-02T23:20:55.293Z,100626.46
2022-10-02T23:23:25.859Z,100629.13
2022-10-02T23:25:53.508Z,100630.23
2022-10-02T23:28:30.467Z,100632.27
2022-10-02T23:31:04.040Z,100633.88
2022-10-02T23:33:40.292Z,100630.70
2022-10-02T23:36:20.350Z,100633.55
2022-10-02T23:39:11.294Z,100628.68
2022-10-02T23:41:49.209Z,100628.51
2022-10-02T23:44:22.488Z,100635.70
2022-10-02T23:46:50.147Z,100631.98
2022-10-02T23:49:18.454Z,100630.14
2022-10-02T23:51:55.428Z,100634.35
2022-10-02T23:54:25.827Z,100636.35
2022-10-02T23:57:02.697Z,100639.73
2022-10-02T23:59:45.849Z,100637.30
